LEGE Información de aeropuertos

Información de pistas
Pista 02 Longitud 7874 ft Ancho 148 ft
Elevación 403 ft Umbral 0 ft Rumbo 16
Pista 20 Longitud 7874 ft Ancho 148 ft
Elevación 468 ft Umbral 0 ft Rumbo 196
Frecuencias
Tipo APP Nombre APP Frequencia 120.9 MHZ
Tipo GND Nombre GND Frequencia 121.7 MHZ
Tipo TWR Nombre TWR Frequencia 118.5 MHZ
Radioayudas
Tipo VOR-DME Nombre Gerona Frequencia 114100 KHZ
Tipo NDB Nombre Gerona Frequencia 412 KHZ
Información meteorológica y NOTAM
ADDS - METARS form results

(2015 UTC 27 September 2021)
Data provider http://aviationweather.gov/metar/data/
 
METAR text: LEGE 272000Z VRB01KT CAVOK 19/16 Q1022
Conditions at: LEGE (GERONA/COSTA BRA, ES) observed 2000 UTC 27 September 2021
Temperature: 19.0°C (66°F)
Dewpoint: 16.0°C (61°F) [RH = 83%]
Pressure (altimeter): 30.18 inches Hg (1022.0 mb)
Winds: variable direction winds at 1 MPH (1 knots; 0.5 m/s)
Visibility: 6 or more miles (10+ km)
Ceiling: ceiling and visibility are OK
Clouds: unknown
Weather: no significant weather observed at this time

METAR text: LEGE 271930Z VRB01KT CAVOK 20/17 Q1022
Conditions at: LEGE (GERONA/COSTA BRA, ES) observed 1930 UTC 27 September 2021
Temperature: 20.0°C (68°F)
Dewpoint: 17.0°C (63°F) [RH = 83%]
Pressure (altimeter): 30.18 inches Hg (1022.0 mb)
Winds: variable direction winds at 1 MPH (1 knots; 0.5 m/s)
Visibility: 6 or more miles (10+ km)
Ceiling: ceiling and visibility are OK
Clouds: unknown
Weather: no significant weather observed at this time

Forecast for: LEGE (GERONA/COSTA BRA, ES)
Text: TAF LEGE 271700Z 2718/2818 VRB04KT 9999 FEW050 TX28/2813Z TN15/2806Z
Forecast period: 1800 UTC 27 September 2021 to 1000 UTC 28 September 2021
Forecast type: FROM: standard forecast or significant change
Winds: variable direction winds at 5 MPH (4 knots; 2.1 m/s)
Visibility: 6 or more miles (10+ km)
Ceiling: at least 12,000 feet AGL
Clouds: few clouds at 5000 feet AGL
Weather: no significant weather forecast for this period
Text: PROB30
Forecast period: 0000 to 0600 UTC 28 September 2021
Forecast type: TEMPORARY: The following changes expected for less than half the time period
Visibility: 1.86 miles (2.99 km)
Ceiling: unknown
Clouds: missing
Weather: BR  (mist)
Text: TEMPO 2800/2806 3000 BR
Forecast period: 1000 to 1800 UTC 28 September 2021
Forecast type: BECOMING: Conditions expected to become as follows by 1200 UTC 28 September 2021
Winds: from the S (190 degrees) at 12 MPH (10 knots; 5.1 m/s)
Visibility: 6 or more miles (10+ km)
Ceiling: at least 12,000 feet AGL
Clouds: few clouds at 5000 feet AGL
Weather: no significant weather forecast for this period